createdAt,value
2018-09-17T00:01:26.887Z,2.70
2018-09-17T00:03:55.226Z,3.00
2018-09-17T00:06:23.563Z,2.80
2018-09-17T00:08:51.922Z,2.77
2018-09-17T00:11:20.278Z,2.83
2018-09-17T00:13:49.354Z,2.77
2018-09-17T00:16:17.702Z,2.53
2018-09-17T00:18:46.055Z,2.93
2018-09-17T00:21:14.392Z,3.07
2018-09-17T00:23:42.742Z,3.00
2018-09-17T00:26:11.075Z,2.80
2018-09-17T00:28:39.432Z,2.77
2018-09-17T00:31:07.767Z,2.90
2018-09-17T00:33:36.114Z,2.70
2018-09-17T00:36:04.491Z,3.10
2018-09-17T00:38:32.841Z,2.80
2018-09-17T00:41:01.164Z,2.80
2018-09-17T00:43:29.511Z,3.07
2018-09-17T00:45:57.842Z,3.17
2018-09-17T00:48:26.226Z,3.20
2018-09-17T00:50:54.547Z,2.90
2018-09-17T00:53:22.877Z,3.00
2018-09-17T00:55:51.226Z,2.73
2018-09-17T00:58:19.691Z,3.00
2018-09-17T01:00:48.029Z,3.00
2018-09-17T01:03:16.395Z,2.73
2018-09-17T01:05:44.753Z,3.07
2018-09-17T01:08:13.075Z,3.10
2018-09-17T01:10:41.441Z,2.80
2018-09-17T01:13:09.783Z,2.77
2018-09-17T01:15:38.174Z,2.77
2018-09-17T01:18:06.536Z,2.80
2018-09-17T01:20:34.896Z,3.07
2018-09-17T01:23:03.216Z,3.10
2018-09-17T01:25:31.744Z,3.07
2018-09-17T01:28:00.259Z,2.83
2018-09-17T01:30:28.659Z,3.17
2018-09-17T01:32:56.923Z,2.70
2018-09-17T01:35:25.313Z,2.90
2018-09-17T01:37:53.644Z,3.10
2018-09-17T01:40:22.018Z,2.80
2018-09-17T01:42:50.348Z,3.23
2018-09-17T01:45:18.739Z,3.37
2018-09-17T01:47:48.186Z,3.10
2018-09-17T01:50:16.634Z,3.07
2018-09-17T01:52:44.966Z,3.13
2018-09-17T01:55:13.305Z,3.50
2018-09-17T01:57:41.651Z,3.17
2018-09-17T02:00:09.990Z,3.23
2018-09-17T02:02:38.353Z,3.00
2018-09-17T02:05:06.837Z,3.20
2018-09-17T02:07:35.176Z,2.97
2018-09-17T02:10:03.655Z,3.00
2018-09-17T02:12:31.938Z,2.97
2018-09-17T02:15:00.268Z,3.10
2018-09-17T02:17:28.682Z,2.90
2018-09-17T02:19:57.007Z,2.80
2018-09-17T02:22:25.362Z,3.20
2018-09-17T02:24:53.700Z,3.00
2018-09-17T02:27:22.060Z,3.23
2018-09-17T02:29:50.604Z,2.77
2018-09-17T02:32:18.977Z,2.83
2018-09-17T02:34:47.295Z,2.57
2018-09-17T02:37:15.640Z,2.90
2018-09-17T02:39:43.965Z,3.30
2018-09-17T02:42:12.326Z,3.00
2018-09-17T02:44:40.656Z,2.93
2018-09-17T02:47:08.994Z,3.00
2018-09-17T02:49:37.315Z,2.80
2018-09-17T02:52:05.762Z,2.93
2018-09-17T02:54:34.114Z,3.20
2018-09-17T02:57:02.464Z,2.90
2018-09-17T02:59:30.818Z,3.33
2018-09-17T03:01:59.235Z,3.20
2018-09-17T03:04:27.739Z,3.03
2018-09-17T03:06:56.117Z,3.10
2018-09-17T03:09:24.437Z,3.17
2018-09-17T03:11:52.818Z,3.00
2018-09-17T03:14:27.547Z,3.13
2018-09-17T03:17:05.319Z,3.10
2018-09-17T03:19:33.665Z,3.20
2018-09-17T03:22:02.024Z,2.97
2018-09-17T03:24:30.398Z,3.30
2018-09-17T03:26:58.828Z,3.30
2018-09-17T03:29:27.158Z,3.47
2018-09-17T03:31:55.510Z,3.13
2018-09-17T03:34:23.876Z,3.30
2018-09-17T03:36:52.227Z,3.40
2018-09-17T03:39:20.566Z,3.43
2018-09-17T03:41:49.015Z,3.60
2018-09-17T03:44:17.332Z,3.53
2018-09-17T03:46:45.801Z,3.83
2018-09-17T03:49:14.088Z,4.53
2018-09-17T03:51:42.423Z,3.57
2018-09-17T03:54:10.804Z,3.37
2018-09-17T03:56:39.145Z,3.47
2018-09-17T03:59:07.516Z,3.37
2018-09-17T04:01:35.854Z,3.70
2018-09-17T04:04:04.313Z,3.53
2018-09-17T04:06:32.629Z,3.37
2018-09-17T04:09:00.969Z,3.10
2018-09-17T04:11:29.325Z,3.30
2018-09-17T04:13:57.712Z,3.13
2018-09-17T04:16:26.075Z,3.30
2018-09-17T04:18:54.423Z,3.47
2018-09-17T04:21:22.816Z,3.23
2018-09-17T04:23:51.157Z,3.33
2018-09-17T04:26:19.475Z,3.40
2018-09-17T04:28:47.804Z,3.23
2018-09-17T04:31:16.121Z,3.33
2018-09-17T04:33:44.480Z,3.07
2018-09-17T04:36:13.360Z,3.00
2018-09-17T04:38:41.688Z,3.53
2018-09-17T04:41:10.014Z,3.30
2018-09-17T04:43:38.437Z,3.40
2018-09-17T04:46:06.764Z,3.43
2018-09-17T04:48:35.108Z,3.13
2018-09-17T04:51:03.437Z,3.50
2018-09-17T04:53:31.783Z,3.60
2018-09-17T04:56:00.120Z,3.60
2018-09-17T04:58:28.465Z,3.80
2018-09-17T05:00:56.780Z,3.40
2018-09-17T05:03:25.189Z,3.90
2018-09-17T05:05:53.546Z,3.80
2018-09-17T05:08:21.881Z,4.10
2018-09-17T05:10:50.233Z,3.77
2018-09-17T05:13:18.696Z,3.50
2018-09-17T05:15:46.914Z,3.90
2018-09-17T05:18:15.261Z,3.70
2018-09-17T05:20:43.636Z,3.80
2018-09-17T05:23:12.028Z,3.70
2018-09-17T05:25:40.459Z,3.70
2018-09-17T05:28:08.794Z,3.70
2018-09-17T05:30:37.175Z,3.47
2018-09-17T05:33:05.531Z,4.17
2018-09-17T05:35:33.875Z,4.27
2018-09-17T05:38:02.263Z,4.30
2018-09-17T05:40:30.731Z,4.20
2018-09-17T05:42:59.831Z,3.50
2018-09-17T05:45:28.444Z,4.43
2018-09-17T05:47:56.776Z,3.50
2018-09-17T05:50:25.090Z,3.90
2018-09-17T05:52:53.407Z,4.07
2018-09-17T05:55:21.788Z,4.53
2018-09-17T05:57:50.128Z,4.70
2018-09-17T06:00:18.480Z,4.03
2018-09-17T06:02:46.817Z,4.20
2018-09-17T06:05:15.175Z,4.13
2018-09-17T06:07:43.503Z,4.30
2018-09-17T06:10:14.012Z,4.07
2018-09-17T06:12:43.406Z,4.33
2018-09-17T06:15:11.776Z,5.00
2018-09-17T06:17:40.119Z,4.80
2018-09-17T06:20:08.752Z,5.00
2018-09-17T06:22:37.108Z,4.70
2018-09-17T06:25:05.618Z,4.13
2018-09-17T06:27:33.973Z,4.20
2018-09-17T06:30:02.338Z,3.90
2018-09-17T06:32:30.702Z,4.97
2018-09-17T06:34:59.047Z,3.67
2018-09-17T06:37:27.387Z,4.07
2018-09-17T06:39:55.746Z,3.70
2018-09-17T06:42:24.124Z,3.90
2018-09-17T06:44:52.532Z,4.13
2018-09-17T06:47:20.871Z,4.07
2018-09-17T06:49:49.339Z,3.87
2018-09-17T06:52:17.652Z,3.77
2018-09-17T06:54:46.006Z,3.63
2018-09-17T06:57:14.332Z,4.20
2018-09-17T06:59:42.747Z,4.00
2018-09-17T07:02:11.071Z,3.97
2018-09-17T07:04:39.403Z,4.37
2018-09-17T07:07:07.733Z,4.30
2018-09-17T07:09:36.311Z,4.07
2018-09-17T07:12:04.655Z,4.87
2018-09-17T07:14:32.991Z,3.73
2018-09-17T07:17:01.329Z,4.83
2018-09-17T07:19:29.694Z,4.50
2018-09-17T07:21:58.032Z,4.57
2018-09-17T07:24:26.371Z,4.67
2018-09-17T07:26:54.696Z,4.97
2018-09-17T07:29:23.031Z,4.30
2018-09-17T07:31:51.347Z,4.30
2018-09-17T07:34:19.675Z,4.43
2018-09-17T07:36:48.007Z,4.57
2018-09-17T07:39:16.364Z,4.97
2018-09-17T07:41:44.696Z,4.43
2018-09-17T07:44:13.044Z,4.37
2018-09-17T07:46:41.360Z,3.93
2018-09-17T07:49:09.706Z,3.47
2018-09-17T07:51:38.048Z,4.10
2018-09-17T07:54:06.408Z,3.90
2018-09-17T07:56:34.761Z,3.30
2018-09-17T07:59:03.083Z,3.77
2018-09-17T08:01:31.443Z,3.57
2018-09-17T08:03:59.781Z,3.70
2018-09-17T08:06:28.124Z,3.37
2018-09-17T08:08:56.436Z,3.30
2018-09-17T08:11:24.946Z,3.43
2018-09-17T08:13:53.264Z,3.53
2018-09-17T08:16:21.617Z,3.57
2018-09-17T08:18:49.939Z,3.50
2018-09-17T08:21:18.301Z,3.57
2018-09-17T08:23:46.656Z,3.37
2018-09-17T08:26:14.992Z,3.20
2018-09-17T08:28:43.317Z,3.40
2018-09-17T08:31:11.668Z,3.50
2018-09-17T08:33:40.009Z,3.37
2018-09-17T08:36:08.349Z,3.57
2018-09-17T08:38:37.125Z,3.27
2018-09-17T08:41:07.129Z,3.50
2018-09-17T08:43:45.674Z,4.83
2018-09-17T08:46:14.015Z,3.60
2018-09-17T08:48:42.333Z,3.20
2018-09-17T08:51:10.678Z,3.40
2018-09-17T08:53:38.995Z,3.43
2018-09-17T08:56:12.492Z,3.60
2018-09-17T08:58:46.102Z,3.60
2018-09-17T09:01:19.748Z,3.37
2018-09-17T09:03:53.465Z,3.47
2018-09-17T09:06:26.028Z,2.97
2018-09-17T09:08:54.347Z,3.50
2018-09-17T09:11:26.918Z,3.40
2018-09-17T09:13:56.279Z,3.30
2018-09-17T09:16:25.432Z,3.10
2018-09-17T09:19:07.799Z,3.00
2018-09-17T09:21:36.132Z,2.70
2018-09-17T09:24:04.444Z,2.93
2018-09-17T09:26:32.784Z,3.30
2018-09-17T09:29:01.114Z,3.10
2018-09-17T09:31:29.674Z,2.63
2018-09-17T09:33:58.000Z,3.30
2018-09-17T09:36:26.344Z,3.00
2018-09-17T09:38:54.671Z,2.23
2018-09-17T09:41:23.037Z,2.30
2018-09-17T09:43:51.361Z,2.20
2018-09-17T09:46:19.758Z,2.10
2018-09-17T09:48:48.069Z,2.80
2018-09-17T09:51:16.394Z,2.30
2018-09-17T09:53:44.741Z,2.60
2018-09-17T09:56:13.108Z,2.43
2018-09-17T09:58:41.513Z,2.50
2018-09-17T10:01:15.041Z,2.40
2018-09-17T10:03:45.678Z,2.03
2018-09-17T10:06:15.472Z,1.90
2018-09-17T10:08:49.109Z,2.13
2018-09-17T10:11:22.883Z,2.00
2018-09-17T10:13:56.692Z,2.10
2018-09-17T10:16:25.023Z,2.10
2018-09-17T10:18:58.791Z,2.10
2018-09-17T10:21:27.123Z,2.03
2018-09-17T10:23:55.462Z,1.83
2018-09-17T10:26:23.775Z,2.13
2018-09-17T10:28:52.123Z,2.07
2018-09-17T10:31:20.556Z,1.93
2018-09-17T10:33:48.898Z,2.30
2018-09-17T10:36:17.223Z,2.00
2018-09-17T10:38:45.567Z,2.00
2018-09-17T10:41:13.967Z,2.07
2018-09-17T10:43:42.335Z,2.03
2018-09-17T10:46:10.675Z,1.80
2018-09-17T10:48:39.040Z,2.50
2018-09-17T10:51:07.370Z,1.80
2018-09-17T10:53:35.781Z,2.17
2018-09-17T10:56:04.119Z,2.30
2018-09-17T10:58:32.484Z,2.00
2018-09-17T11:01:00.820Z,2.27
2018-09-17T11:03:29.183Z,2.17
2018-09-17T11:05:57.507Z,2.20
2018-09-17T11:08:25.846Z,1.93
2018-09-17T11:10:54.244Z,2.30
2018-09-17T11:13:22.638Z,2.13
2018-09-17T11:15:50.972Z,2.43
2018-09-17T11:18:19.297Z,2.30
2018-09-17T11:20:48.262Z,2.33
2018-09-17T11:23:16.589Z,2.60
2018-09-17T11:25:44.963Z,2.20
2018-09-17T11:28:13.287Z,2.27
2018-09-17T11:30:41.639Z,2.40
2018-09-17T11:33:10.100Z,2.30
2018-09-17T11:35:38.445Z,2.43
2018-09-17T11:38:06.864Z,2.40
2018-09-17T11:40:35.198Z,2.40
2018-09-17T11:43:03.529Z,2.50
2018-09-17T11:45:31.887Z,2.60
2018-09-17T11:48:00.911Z,2.33
2018-09-17T11:50:29.294Z,2.40
2018-09-17T11:52:57.611Z,2.50
2018-09-17T11:55:26.131Z,2.67
2018-09-17T11:57:55.216Z,2.50
2018-09-17T12:00:28.966Z,2.80
2018-09-17T12:03:02.723Z,2.50
2018-09-17T12:05:36.385Z,2.80
2018-09-17T12:08:09.006Z,2.70
2018-09-17T12:10:37.390Z,2.60
2018-09-17T12:13:05.720Z,2.67
2018-09-17T12:15:37.823Z,2.50
2018-09-17T12:18:06.165Z,2.97
2018-09-17T12:20:34.643Z,2.53
2018-09-17T12:23:02.982Z,2.75
2018-09-17T12:25:31.328Z,2.60
2018-09-17T12:27:59.685Z,2.60
2018-09-17T12:30:28.029Z,2.65
2018-09-17T12:32:56.528Z,2.40
2018-09-17T12:35:24.947Z,2.70
2018-09-17T12:37:53.283Z,3.40
2018-09-17T12:40:21.638Z,2.70
2018-09-17T12:42:49.965Z,2.60
2018-09-17T12:45:18.311Z,2.70
2018-09-17T12:47:46.640Z,2.57
2018-09-17T12:50:14.988Z,2.00
2018-09-17T12:52:43.325Z,2.65
2018-09-17T12:55:11.750Z,2.50
2018-09-17T12:57:40.083Z,2.55
2018-09-17T13:00:09.152Z,2.40
2018-09-17T13:02:37.500Z,2.40
2018-09-17T13:05:05.874Z,2.35
2018-09-17T13:07:34.181Z,2.30
2018-09-17T13:10:02.591Z,2.30
2018-09-17T13:12:31.083Z,2.40
2018-09-17T13:14:59.446Z,2.47
2018-09-17T13:17:27.783Z,2.10
2018-09-17T13:19:56.099Z,2.30
2018-09-17T13:22:24.444Z,2.22
2018-09-17T13:24:52.800Z,2.83
2018-09-17T13:27:21.160Z,2.35
2018-09-17T13:29:49.491Z,2.40
2018-09-17T13:32:17.845Z,2.37
2018-09-17T13:34:46.192Z,2.42
2018-09-17T13:37:14.580Z,2.20
2018-09-17T13:39:42.927Z,2.30
2018-09-17T13:42:11.288Z,2.10
2018-09-17T13:44:39.749Z,2.02
2018-09-17T13:47:07.983Z,2.50
2018-09-17T13:49:36.300Z,2.50
2018-09-17T13:52:04.649Z,2.60
2018-09-17T13:54:32.999Z,2.52
2018-09-17T13:57:01.339Z,2.25
2018-09-17T13:59:29.661Z,2.52
2018-09-17T14:01:58.050Z,2.30
2018-09-17T14:04:26.420Z,2.60
2018-09-17T14:06:54.752Z,2.37
2018-09-17T14:09:23.097Z,2.30
2018-09-17T14:11:51.503Z,2.45
2018-09-17T14:14:20.047Z,2.40
2018-09-17T14:16:48.447Z,2.60
2018-09-17T14:19:16.769Z,2.40
2018-09-17T14:21:45.121Z,2.33
2018-09-17T14:24:13.457Z,2.30
2018-09-17T14:26:41.797Z,2.77
2018-09-17T14:29:10.124Z,2.47
2018-09-17T14:31:43.944Z,2.40
2018-09-17T14:34:12.273Z,2.95
2018-09-17T14:36:40.612Z,2.83
2018-09-17T14:39:09.734Z,2.70
2018-09-17T14:41:38.152Z,2.70
2018-09-17T14:44:08.096Z,2.55
2018-09-17T14:46:36.482Z,3.12
2018-09-17T14:49:04.817Z,2.80
2018-09-17T14:51:33.198Z,2.60
2018-09-17T14:54:01.604Z,2.98
2018-09-17T14:56:29.913Z,2.70
2018-09-17T14:58:58.239Z,2.65
2018-09-17T15:01:26.687Z,3.00
2018-09-17T15:03:54.991Z,3.15
2018-09-17T15:06:23.356Z,2.80
2018-09-17T15:08:51.810Z,3.22
2018-09-17T15:11:20.095Z,3.33
2018-09-17T15:13:48.552Z,3.65
2018-09-17T15:16:16.985Z,3.45
2018-09-17T15:18:45.297Z,2.98
2018-09-17T15:21:13.892Z,2.72
2018-09-17T15:23:42.284Z,3.22
2018-09-17T15:26:10.667Z,2.77
2018-09-17T15:28:39.013Z,3.00
2018-09-17T15:31:07.358Z,3.10
2018-09-17T15:33:35.745Z,3.47
2018-09-17T15:36:04.134Z,2.90
2018-09-17T15:38:32.537Z,3.20
2018-09-17T15:41:01.070Z,3.90
2018-09-17T15:43:29.349Z,3.45
2018-09-17T15:45:57.714Z,2.67
2018-09-17T15:48:26.031Z,3.20
2018-09-17T15:50:54.353Z,3.00
2018-09-17T15:53:22.687Z,3.30
2018-09-17T15:55:51.058Z,2.90
2018-09-17T15:58:19.496Z,3.15
2018-09-17T16:00:47.867Z,3.12
2018-09-17T16:03:16.226Z,3.20
2018-09-17T16:05:44.658Z,3.02
2018-09-17T16:08:13.007Z,3.62
2018-09-17T16:10:41.351Z,3.40
2018-09-17T16:13:09.720Z,3.10
2018-09-17T16:15:38.042Z,2.83
2018-09-17T16:18:06.379Z,2.67
2018-09-17T16:20:34.705Z,2.85
2018-09-17T16:23:03.231Z,2.92
2018-09-17T16:25:31.554Z,3.58
2018-09-17T16:27:59.891Z,3.10
2018-09-17T16:30:28.210Z,2.70
2018-09-17T16:32:56.543Z,2.70
2018-09-17T16:35:24.914Z,3.20
2018-09-17T16:37:53.256Z,2.80
2018-09-17T16:40:22.012Z,2.90
2018-09-17T16:42:50.359Z,2.62
2018-09-17T16:45:18.676Z,2.47
2018-09-17T16:47:47.051Z,2.72
2018-09-17T16:50:15.385Z,2.83
2018-09-17T16:52:43.777Z,2.70
2018-09-17T16:55:12.117Z,2.70
2018-09-17T16:57:40.435Z,2.70
2018-09-17T17:00:08.825Z,2.60
2018-09-17T17:02:37.299Z,2.70
2018-09-17T17:05:05.683Z,2.37
2018-09-17T17:07:34.024Z,2.55
2018-09-17T17:10:02.465Z,2.25
2018-09-17T17:12:30.763Z,2.70
2018-09-17T17:14:59.113Z,2.90
2018-09-17T17:17:27.431Z,2.62
2018-09-17T17:19:55.788Z,2.22
2018-09-17T17:22:24.131Z,2.60
2018-09-17T17:24:52.538Z,2.30
2018-09-17T17:27:20.856Z,2.50
2018-09-17T17:29:49.202Z,2.60
2018-09-17T17:32:17.528Z,2.35
2018-09-17T17:34:45.881Z,2.22
2018-09-17T17:37:14.207Z,2.47
2018-09-17T17:39:42.712Z,2.62
2018-09-17T17:42:10.919Z,2.70
2018-09-17T17:44:39.292Z,2.27
2018-09-17T17:47:07.696Z,2.50
2018-09-17T17:49:36.051Z,2.35
2018-09-17T17:52:04.422Z,2.62
2018-09-17T17:54:32.776Z,2.20
2018-09-17T17:57:01.097Z,2.47
2018-09-17T17:59:29.439Z,2.47
2018-09-17T18:01:57.775Z,2.17
2018-09-17T18:04:26.428Z,2.60
2018-09-17T18:06:54.698Z,2.47
2018-09-17T18:09:23.038Z,2.60
2018-09-17T18:11:51.387Z,2.40
2018-09-17T18:14:19.735Z,2.70
2018-09-17T18:16:48.071Z,2.53
2018-09-17T18:19:16.449Z,2.60
2018-09-17T18:21:44.871Z,2.47
2018-09-17T18:24:13.170Z,2.60
2018-09-17T18:26:41.505Z,2.60
2018-09-17T18:29:10.023Z,2.70
2018-09-17T18:31:38.341Z,2.77
2018-09-17T18:34:06.945Z,2.50
2018-09-17T18:36:35.321Z,2.70
2018-09-17T18:39:04.460Z,2.60
2018-09-17T18:41:32.803Z,2.70
2018-09-17T18:44:01.123Z,3.13
2018-09-17T18:46:29.451Z,2.80
2018-09-17T18:48:57.788Z,2.80
2018-09-17T18:51:26.125Z,2.87
2018-09-17T18:53:54.469Z,3.33
2018-09-17T18:56:23.010Z,2.77
2018-09-17T18:58:51.343Z,3.30
2018-09-17T19:01:19.687Z,3.13
2018-09-17T19:03:48.247Z,2.70
2018-09-17T19:06:16.896Z,2.83
2018-09-17T19:08:45.264Z,2.83
2018-09-17T19:11:13.643Z,2.57
2018-09-17T19:13:42.016Z,2.60
2018-09-17T19:16:10.479Z,2.90
2018-09-17T19:18:38.898Z,2.80
2018-09-17T19:21:07.437Z,2.63
2018-09-17T19:23:40.981Z,3.00
2018-09-17T19:26:09.349Z,2.80
2018-09-17T19:28:43.020Z,3.13
2018-09-17T19:31:11.379Z,2.80
2018-09-17T19:33:39.711Z,2.70
2018-09-17T19:36:08.090Z,2.67
2018-09-17T19:38:41.617Z,3.20
2018-09-17T19:41:09.966Z,2.73
2018-09-17T19:43:38.281Z,2.77
2018-09-17T19:46:11.960Z,2.90
2018-09-17T19:48:40.267Z,2.83
2018-09-17T19:51:13.964Z,2.57
2018-09-17T19:53:42.361Z,3.30
2018-09-17T19:56:10.692Z,3.03
2018-09-17T19:58:44.406Z,3.00
2018-09-17T20:01:12.738Z,2.87
2018-09-17T20:03:41.634Z,2.83
2018-09-17T20:06:15.616Z,3.47
2018-09-17T20:08:43.907Z,2.90
2018-09-17T20:11:12.297Z,3.23
2018-09-17T20:13:40.636Z,3.10
2018-09-17T20:16:08.977Z,3.30
2018-09-17T20:18:37.305Z,3.53
2018-09-17T20:21:05.855Z,3.77
2018-09-17T20:23:34.172Z,3.57
2018-09-17T20:26:02.523Z,3.90
2018-09-17T20:28:30.851Z,3.67
2018-09-17T20:30:59.218Z,3.90
2018-09-17T20:33:31.179Z,3.90
2018-09-17T20:35:59.546Z,3.67
2018-09-17T20:38:28.004Z,4.00
2018-09-17T20:40:56.726Z,4.03
2018-09-17T20:43:26.859Z,3.80
2018-09-17T20:45:55.453Z,3.47
2018-09-17T20:48:23.796Z,3.67
2018-09-17T20:50:52.167Z,3.67
2018-09-17T20:53:20.558Z,4.30
2018-09-17T20:55:48.948Z,4.00
2018-09-17T20:58:17.297Z,3.67
2018-09-17T21:00:45.675Z,4.03
2018-09-17T21:03:14.014Z,4.03
2018-09-17T21:05:42.377Z,4.90
2018-09-17T21:08:10.764Z,5.60
2018-09-17T21:10:39.165Z,4.60
2018-09-17T21:13:08.427Z,4.43
2018-09-17T21:15:36.793Z,3.87
2018-09-17T21:18:05.191Z,4.40
2018-09-17T21:20:33.509Z,3.90
2018-09-17T21:23:01.881Z,4.30
2018-09-17T21:25:30.237Z,4.80
2018-09-17T21:27:58.655Z,4.60
2018-09-17T21:30:26.995Z,4.70
2018-09-17T21:32:55.370Z,4.90
2018-09-17T21:35:23.743Z,4.53
2018-09-17T21:37:52.179Z,4.30
2018-09-17T21:40:21.310Z,4.90
2018-09-17T21:42:49.699Z,4.57
2018-09-17T21:45:18.035Z,5.13
2018-09-17T21:47:46.435Z,4.40
2018-09-17T21:50:14.782Z,4.40
2018-09-17T21:52:43.136Z,4.63
2018-09-17T21:55:11.472Z,4.00
2018-09-17T21:57:39.814Z,3.83
2018-09-17T22:00:09.063Z,4.27
2018-09-17T22:02:37.479Z,4.03
2018-09-17T22:05:05.831Z,3.90
2018-09-17T22:07:34.192Z,4.40
2018-09-17T22:10:02.543Z,3.87
2018-09-17T22:12:30.952Z,3.70
2018-09-17T22:14:59.254Z,4.10
2018-09-17T22:17:27.573Z,4.30
2018-09-17T22:19:55.909Z,3.80
2018-09-17T22:22:24.231Z,4.10
2018-09-17T22:24:52.567Z,4.00
2018-09-17T22:27:20.891Z,4.03
2018-09-17T22:29:49.220Z,4.10
2018-09-17T22:32:17.554Z,4.00
2018-09-17T22:34:45.883Z,3.87
2018-09-17T22:37:14.204Z,3.57
2018-09-17T22:39:42.550Z,3.80
2018-09-17T22:42:11.026Z,3.80
2018-09-17T22:44:39.371Z,3.53
2018-09-17T22:47:07.701Z,3.67
2018-09-17T22:49:36.044Z,3.77
2018-09-17T22:52:04.367Z,3.67
2018-09-17T22:54:32.698Z,3.63
2018-09-17T22:57:01.027Z,3.77
2018-09-17T22:59:30.344Z,3.80
2018-09-17T23:01:58.765Z,3.43
2018-09-17T23:04:27.194Z,3.50
2018-09-17T23:06:55.532Z,3.77
2018-09-17T23:09:23.879Z,3.27
2018-09-17T23:11:52.285Z,3.47
2018-09-17T23:14:20.620Z,3.90
2018-09-17T23:16:48.959Z,4.30
2018-09-17T23:19:17.296Z,4.00
2018-09-17T23:21:45.615Z,3.70
2018-09-17T23:24:13.957Z,3.53
2018-09-17T23:26:42.319Z,4.17
2018-09-17T23:29:10.660Z,3.77
2018-09-17T23:31:38.995Z,3.87
2018-09-17T23:34:07.355Z,3.37
2018-09-17T23:36:35.699Z,3.97
2018-09-17T23:39:05.888Z,3.70
2018-09-17T23:41:34.228Z,3.67
2018-09-17T23:44:02.619Z,3.77
2018-09-17T23:46:30.942Z,3.70
2018-09-17T23:48:59.300Z,3.60
2018-09-17T23:51:27.627Z,3.50
2018-09-17T23:53:55.963Z,3.53
2018-09-17T23:56:24.281Z,3.70
2018-09-17T23:58:52.621Z,4.07
